Time;durP1;ratioP1;P1;durP2;ratioP2;P2;SDS_P1;SDS_P2;PMS_P1;PMS_P2;Temp;Humidity;BMP_temperature;BMP_pressure;BME280_temperature;BME280_humidity;BME280_pressure;Samples;Min_cycle;Max_cycle;Signal;HPM_P1;HPM_P2
2021/07/15 00:00:33;;;;;;;1.25;1.17;;;14.10;99.90;;;;;;5021584;28;20863;-78
2021/07/15 00:03:05;;;;;;;1.48;1.48;;;14.10;99.90;;;;;;5022782;28;20223;-78
2021/07/15 00:05:35;;;;;;;1.15;1.15;;;14.10;99.90;;;;;;5024032;28;20219;-78
2021/07/15 00:08:02;;;;;;;1.58;1.30;;;14.10;99.90;;;;;;5025361;28;20220;-77
2021/07/15 00:10:33;;;;;;;1.13;1.13;;;14.10;99.90;;;;;;5028421;28;20589;-77
2021/07/15 00:13:01;;;;;;;1.27;1.15;;;14.10;99.90;;;;;;5023509;28;20232;-78
2021/07/15 00:15:29;;;;;;;0.98;0.98;;;14.00;99.90;;;;;;5021700;28;20220;-78
2021/07/15 00:17:58;;;;;;;1.95;1.10;;;14.00;99.90;;;;;;5021285;28;20285;-77
2021/07/15 00:20:26;;;;;;;1.20;1.10;;;14.00;99.90;;;;;;5023637;28;20219;-78
2021/07/15 00:22:54;;;;;;;1.30;1.30;;;14.00;99.90;;;;;;5020261;28;20242;-78
2021/07/15 00:25:22;;;;;;;1.42;1.20;;;13.90;99.90;;;;;;5023452;28;20223;-78
2021/07/15 00:27:50;;;;;;;1.52;1.42;;;13.90;99.90;;;;;;5024652;28;20763;-78
2021/07/15 00:30:18;;;;;;;1.50;1.40;;;13.90;99.90;;;;;;5019745;28;20222;-77
2021/07/15 00:32:45;;;;;;;1.15;1.15;;;13.80;99.90;;;;;;5021309;28;20224;-78
2021/07/15 00:35:13;;;;;;;1.35;1.25;;;13.80;99.90;;;;;;5022410;28;20227;-78
2021/07/15 00:37:41;;;;;;;1.50;1.40;;;13.80;99.90;;;;;;5024096;28;20263;-77
2021/07/15 00:40:13;;;;;;;1.10;1.10;;;13.80;99.90;;;;;;5022953;28;20231;-77
2021/07/15 00:42:40;;;;;;;1.50;1.40;;;13.80;99.90;;;;;;5022056;28;20783;-77
2021/07/15 00:45:09;;;;;;;1.40;1.30;;;13.80;99.90;;;;;;5017395;28;20603;-79
2021/07/15 00:47:37;;;;;;;1.40;1.30;;;13.90;99.90;;;;;;5024478;28;20641;-78
2021/07/15 00:50:06;;;;;;;1.50;1.20;;;13.80;99.90;;;;;;5021200;28;20635;-78
2021/07/15 00:52:33;;;;;;;1.23;1.23;;;13.90;99.90;;;;;;5021574;28;20270;-77
2021/07/15 00:55:00;;;;;;;1.50;1.40;;;13.80;99.90;;;;;;5022133;28;20220;-77
2021/07/15 00:57:29;;;;;;;1.58;1.48;;;13.90;99.90;;;;;;5018466;28;20294;-78
2021/07/15 00:59:56;;;;;;;1.05;1.00;;;13.80;99.90;;;;;;5019495;28;20219;-77
2021/07/15 01:02:23;;;;;;;1.38;1.38;;;13.80;99.90;;;;;;5020558;28;20277;-79
2021/07/15 01:04:50;;;;;;;1.23;1.23;;;13.90;99.90;;;;;;5020329;28;20235;-78
2021/07/15 01:07:21;;;;;;;1.40;1.33;;;13.90;99.90;;;;;;5021252;28;20234;-77
2021/07/15 01:10:02;;;;;;;1.30;1.25;;;13.90;99.90;;;;;;5019066;28;20318;-80
2021/07/15 01:12:48;;;;;;;1.20;1.20;;;14.00;99.90;;;;;;5036283;28;20330;-77
2021/07/15 01:15:19;;;;;;;1.40;1.35;;;14.00;99.90;;;;;;5009616;28;20215;-78
2021/07/15 01:18:01;;;;;;;1.40;1.30;;;14.00;99.90;;;;;;5005213;28;20210;-78
2021/07/15 01:20:55;;;;;;;1.40;1.30;;;14.00;99.90;;;;;;5026152;28;20227;-79
2021/07/15 01:24:01;;;;;;;1.50;1.40;;;14.10;99.90;;;;;;5021015;28;20228;-77
2021/07/15 01:26:58;;;;;;;1.70;1.33;;;14.00;99.90;;;;;;5025647;28;20223;-77
2021/07/15 01:29:39;;;;;;;1.30;1.30;;;14.00;99.90;;;;;;5015835;28;20241;-79
2021/07/15 01:32:09;;;;;;;1.50;1.40;;;13.90;99.90;;;;;;5020194;28;20231;-78
2021/07/15 01:34:38;;;;;;;1.60;1.23;;;13.90;99.90;;;;;;5026594;28;20310;-78
2021/07/15 01:37:06;;;;;;;1.50;1.40;;;13.90;99.90;;;;;;5022404;28;20639;-77
2021/07/15 01:39:37;;;;;;;2.33;1.65;;;13.90;99.90;;;;;;5020005;28;20408;-77
2021/07/15 01:42:09;;;;;;;1.33;1.20;;;13.90;99.90;;;;;;5022790;28;20238;-79
2021/07/15 01:44:37;;;;;;;1.40;1.30;;;13.90;99.90;;;;;;5021338;28;20223;-78
2021/07/15 01:47:04;;;;;;;1.52;1.40;;;13.90;99.90;;;;;;5022329;28;20234;-77
2021/07/15 01:49:34;;;;;;;2.78;1.80;;;13.90;99.90;;;;;;5021887;28;20281;-78
2021/07/15 01:52:02;;;;;;;1.58;1.42;;;13.90;99.90;;;;;;5020171;28;20216;-77
2021/07/15 01:54:30;;;;;;;1.80;1.40;;;13.80;99.90;;;;;;5019482;28;20212;-79
2021/07/15 01:56:59;;;;;;;1.25;1.23;;;13.80;99.90;;;;;;5022987;28;20652;-78
2021/07/15 01:59:31;;;;;;;1.30;1.30;;;13.80;99.90;;;;;;5028008;28;20219;-78
2021/07/15 02:02:01;;;;;;;2.20;1.30;;;13.80;99.90;;;;;;5018304;28;20284;-78
2021/07/15 02:04:30;;;;;;;1.50;1.40;;;13.80;99.90;;;;;;5021337;28;20779;-78
2021/07/15 02:06:59;;;;;;;1.75;1.65;;;13.80;99.90;;;;;;5021494;28;20721;-78
2021/07/15 02:09:27;;;;;;;1.40;1.30;;;13.80;99.90;;;;;;5019975;28;20231;-78
2021/07/15 02:11:56;;;;;;;1.30;1.30;;;13.90;99.90;;;;;;5018587;28;20223;-77
2021/07/15 02:14:24;;;;;;;1.52;1.42;;;13.90;99.90;;;;;;5022191;28;20215;-78
2021/07/15 02:16:54;;;;;;;1.80;1.20;;;13.90;99.90;;;;;;5023516;28;20239;-78
2021/07/15 02:19:23;;;;;;;1.77;1.30;;;13.90;99.90;;;;;;5027857;28;20265;-78
2021/07/15 02:21:52;;;;;;;1.42;1.30;;;13.90;99.90;;;;;;5027346;28;20724;-79
2021/07/15 02:24:24;;;;;;;1.40;1.40;;;13.90;99.90;;;;;;5028603;28;20223;-78
2021/07/15 02:26:53;;;;;;;1.48;1.38;;;13.90;99.90;;;;;;5027807;28;20219;-77
2021/07/15 02:29:20;;;;;;;1.40;1.30;;;13.90;99.90;;;;;;5028782;28;20223;-77
2021/07/15 02:31:52;;;;;;;1.90;1.08;;;13.90;99.90;;;;;;5028561;28;20610;-78
2021/07/15 02:34:24;;;;;;;1.35;1.35;;;14.00;99.90;;;;;;5023546;28;20285;-77
2021/07/15 02:36:52;;;;;;;1.48;1.38;;;14.00;99.90;;;;;;5024508;28;20648;-78
2021/07/15 02:39:21;;;;;;;1.40;1.30;;;13.90;99.90;;;;;;5028208;28;20215;-77
2021/07/15 02:41:48;;;;;;;1.30;1.30;;;14.00;99.90;;;;;;5026714;28;20227;-77
2021/07/15 02:44:15;;;;;;;1.30;1.30;;;14.00;99.90;;;;;;5025946;28;20227;-79
2021/07/15 02:46:42;;;;;;;1.13;1.13;;;14.00;99.90;;;;;;5019860;28;20228;-78
2021/07/15 02:49:09;;;;;;;1.40;1.30;;;14.00;99.90;;;;;;5029939;28;20353;-79
2021/07/15 02:51:36;;;;;;;1.13;1.13;;;14.00;99.90;;;;;;5022058;28;20719;-78
2021/07/15 02:54:04;;;;;;;1.45;1.40;;;13.90;99.90;;;;;;5028231;28;20822;-77
2021/07/15 02:56:40;;;;;;;1.50;1.40;;;14.00;99.90;;;;;;5024074;28;20215;-77
2021/07/15 02:59:14;;;;;;;1.35;1.35;;;14.00;99.90;;;;;;5029023;28;20829;-77
2021/07/15 03:01:47;;;;;;;1.33;1.23;;;14.00;99.90;;;;;;5024672;28;20220;-77
2021/07/15 03:04:24;;;;;;;1.63;1.48;;;14.00;99.90;;;;;;5022843;28;20225;-77
2021/07/15 03:06:52;;;;;;;1.50;1.40;;;14.00;99.90;;;;;;5020855;28;20219;-79
2021/07/15 03:09:26;;;;;;;1.13;1.10;;;14.00;99.90;;;;;;5028937;28;20283;-78
2021/07/15 03:12:01;;;;;;;1.30;1.30;;;14.00;99.90;;;;;;5026936;28;21070;-77
2021/07/15 03:14:31;;;;;;;1.60;1.45;;;14.00;99.90;;;;;;5025147;28;20301;-78
2021/07/15 03:17:01;;;;;;;2.67;1.25;;;13.90;99.90;;;;;;5029976;28;20598;-77
2021/07/15 03:19:29;;;;;;;1.48;1.40;;;13.90;99.90;;;;;;5026110;28;20227;-79
2021/07/15 03:21:59;;;;;;;1.10;1.10;;;13.80;99.90;;;;;;5025128;28;20795;-78
2021/07/15 03:24:28;;;;;;;1.33;1.33;;;13.80;99.90;;;;;;5023246;28;20227;-78
2021/07/15 03:26:58;;;;;;;1.30;1.20;;;13.80;99.90;;;;;;5025199;28;20224;-77
2021/07/15 03:29:26;;;;;;;1.23;1.23;;;13.80;99.90;;;;;;5027725;28;20223;-77
2021/07/15 03:31:55;;;;;;;1.48;1.38;;;13.90;99.90;;;;;;5023021;28;20270;-77
2021/07/15 03:34:23;;;;;;;1.25;1.15;;;13.90;99.90;;;;;;5023595;28;20227;-77
2021/07/15 03:36:51;;;;;;;1.40;1.35;;;13.90;99.90;;;;;;5025504;28;20979;-77
2021/07/15 03:39:18;;;;;;;1.30;1.30;;;13.80;99.90;;;;;;5025899;28;20234;-77
2021/07/15 03:41:47;;;;;;;1.50;1.40;;;13.70;99.90;;;;;;5026762;28;20259;-78
2021/07/15 03:44:17;;;;;;;1.40;1.30;;;13.60;99.90;;;;;;5032347;28;20229;-76
2021/07/15 03:46:47;;;;;;;1.98;1.88;;;13.50;99.90;;;;;;5025440;28;20219;-77
2021/07/15 03:49:17;;;;;;;1.70;1.60;;;13.40;99.90;;;;;;5022678;28;20224;-78
2021/07/15 03:51:45;;;;;;;1.40;1.40;;;13.40;99.90;;;;;;5020286;28;20227;-76
2021/07/15 03:54:12;;;;;;;1.75;1.65;;;13.40;99.90;;;;;;5022617;28;20216;-77
2021/07/15 03:56:43;;;;;;;1.60;1.50;;;13.50;99.90;;;;;;5022686;28;20223;-77
2021/07/15 03:59:11;;;;;;;1.73;1.63;;;13.60;99.90;;;;;;5024399;28;20211;-77
2021/07/15 04:01:43;;;;;;;2.28;1.58;;;13.80;99.90;;;;;;5023708;28;20246;-79
2021/07/15 04:04:13;;;;;;;1.52;1.42;;;13.90;99.90;;;;;;5024768;28;20222;-76
2021/07/15 04:06:40;;;;;;;3.55;1.55;;;14.00;99.90;;;;;;5025782;28;20227;-77
2021/07/15 04:09:09;;;;;;;1.98;1.30;;;14.00;99.90;;;;;;5026500;28;20286;-77
2021/07/15 04:11:42;;;;;;;1.50;1.33;;;14.00;99.90;;;;;;5025993;28;20318;-77
2021/07/15 04:14:23;;;;;;;1.70;1.60;;;14.10;99.90;;;;;;5025800;28;20242;-77
2021/07/15 04:17:02;;;;;;;1.65;1.55;;;14.00;99.90;;;;;;5023510;28;20226;-77
2021/07/15 04:19:31;;;;;;;1.30;1.30;;;13.90;99.90;;;;;;5024436;28;20277;-77
2021/07/15 04:21:58;;;;;;;1.10;1.10;;;13.80;99.90;;;;;;5019770;28;20285;-77
2021/07/15 04:24:25;;;;;;;1.20;1.20;;;13.90;99.90;;;;;;5022813;28;20215;-76
2021/07/15 04:26:53;;;;;;;1.20;1.20;;;14.00;99.90;;;;;;5025123;28;20237;-77
2021/07/15 04:29:22;;;;;;;1.40;1.40;;;14.00;99.90;;;;;;5027708;28;20734;-77
2021/07/15 04:32:04;;;;;;;1.48;1.38;;;14.10;99.90;;;;;;5022809;28;20869;-78
2021/07/15 04:34:33;;;;;;;1.38;1.38;;;14.20;99.90;;;;;;5024835;28;20216;-77
2021/07/15 04:37:00;;;;;;;1.52;1.20;;;14.20;99.90;;;;;;5022974;28;20261;-76
2021/07/15 04:39:28;;;;;;;1.48;1.30;;;14.20;99.90;;;;;;5023272;28;20227;-78
2021/07/15 04:41:56;;;;;;;1.10;1.10;;;14.20;99.90;;;;;;5023372;28;20795;-77
2021/07/15 04:44:24;;;;;;;1.63;1.20;;;14.30;99.90;;;;;;5022346;28;20270;-77
2021/07/15 04:46:53;;;;;;;1.25;1.10;;;14.40;99.90;;;;;;5020449;28;20219;-77
2021/07/15 04:49:21;;;;;;;1.23;1.13;;;14.50;99.90;;;;;;5025043;28;20223;-78
2021/07/15 04:51:49;;;;;;;1.50;1.40;;;14.50;99.90;;;;;;5020542;28;20231;-77
2021/07/15 04:54:17;;;;;;;1.30;1.30;;;14.60;99.90;;;;;;5021774;28;20729;-78
2021/07/15 04:56:44;;;;;;;1.17;1.17;;;14.70;99.90;;;;;;5024974;28;20882;-77
2021/07/15 04:59:14;;;;;;;1.35;1.25;;;14.60;99.90;;;;;;5025644;28;20813;-78
2021/07/15 05:01:42;;;;;;;1.20;1.20;;;14.50;99.90;;;;;;5014696;28;20281;-77
2021/07/15 05:04:09;;;;;;;1.50;1.40;;;14.50;99.90;;;;;;5021990;28;20224;-80
2021/07/15 05:06:37;;;;;;;1.70;1.60;;;14.50;99.90;;;;;;5022553;28;20224;-77
2021/07/15 05:09:04;;;;;;;1.85;1.75;;;14.60;99.90;;;;;;5019778;28;20232;-77
2021/07/15 05:11:33;;;;;;;1.52;1.42;;;14.60;99.90;;;;;;5019357;28;20223;-78
2021/07/15 05:14:02;;;;;;;1.60;1.50;;;14.70;99.90;;;;;;5022642;28;20313;-78
2021/07/15 05:16:29;;;;;;;1.92;1.83;;;14.70;99.90;;;;;;5018773;28;20219;-78
2021/07/15 05:18:56;;;;;;;1.30;1.20;;;14.80;99.90;;;;;;5019580;28;20855;-78
2021/07/15 05:21:24;;;;;;;1.40;1.30;;;14.90;99.90;;;;;;5021944;28;20753;-77
2021/07/15 05:23:52;;;;;;;1.50;1.40;;;15.00;99.90;;;;;;5018653;28;20227;-77
2021/07/15 05:26:19;;;;;;;1.40;1.30;;;15.00;99.90;;;;;;5020282;28;20238;-77
2021/07/15 05:28:46;;;;;;;1.52;1.42;;;15.00;99.90;;;;;;5026045;28;20779;-76
2021/07/15 05:31:14;;;;;;;3.88;1.50;;;15.00;99.90;;;;;;5021211;28;20227;-76
2021/07/15 05:33:41;;;;;;;1.00;1.00;;;15.00;99.90;;;;;;5014757;28;20298;-78
2021/07/15 05:36:10;;;;;;;1.50;1.40;;;15.00;99.90;;;;;;5019822;28;20224;-76
2021/07/15 05:38:38;;;;;;;1.10;1.10;;;15.00;99.90;;;;;;5024644;28;20234;-77
2021/07/15 05:41:07;;;;;;;1.10;1.10;;;15.00;99.90;;;;;;5018287;28;20793;-78
2021/07/15 05:43:34;;;;;;;1.70;1.20;;;15.00;99.90;;;;;;5019797;28;20285;-77
2021/07/15 05:46:01;;;;;;;1.20;1.10;;;15.00;99.90;;;;;;5021027;28;20220;-77
2021/07/15 05:48:28;;;;;;;2.55;1.50;;;15.00;99.90;;;;;;5020747;28;20219;-77
2021/07/15 05:50:55;;;;;;;1.50;1.35;;;15.00;99.90;;;;;;5026151;28;20704;-77
2021/07/15 05:53:22;;;;;;;1.60;1.50;;;15.10;99.90;;;;;;5016302;28;20231;-77
2021/07/15 05:55:49;;;;;;;1.52;1.42;;;15.10;99.90;;;;;;5028579;28;20695;-77
2021/07/15 05:58:17;;;;;;;2.25;1.25;;;15.00;99.90;;;;;;5032031;28;20215;-76
2021/07/15 06:00:44;;;;;;;1.40;1.30;;;14.90;99.90;;;;;;5027771;28;20361;-76
2021/07/15 06:03:11;;;;;;;1.50;1.40;;;14.80;99.90;;;;;;5023072;28;20718;-76
2021/07/15 06:05:39;;;;;;;1.60;1.50;;;14.70;99.90;;;;;;5023672;28;20224;-76
2021/07/15 06:08:07;;;;;;;1.70;1.60;;;14.70;99.90;;;;;;5032639;28;20243;-76
2021/07/15 06:10:34;;;;;;;2.15;1.50;;;14.60;99.90;;;;;;5029475;28;20231;-78
2021/07/15 06:13:01;;;;;;;1.50;1.50;;;14.60;99.90;;;;;;5022308;28;20245;-77
2021/07/15 06:15:30;;;;;;;1.50;1.40;;;14.60;99.90;;;;;;5024132;28;20282;-77
2021/07/15 06:17:57;;;;;;;1.40;1.35;;;14.60;99.90;;;;;;5034508;28;20215;-77
2021/07/15 06:20:24;;;;;;;1.30;1.20;;;14.70;99.90;;;;;;5039032;28;20248;-78
2021/07/15 06:22:51;;;;;;;1.40;1.30;;;14.70;99.90;;;;;;5021676;28;20590;-77
2021/07/15 06:25:18;;;;;;;1.88;1.60;;;14.70;99.90;;;;;;5017571;28;20230;-77
2021/07/15 06:27:46;;;;;;;1.48;1.38;;;14.70;99.90;;;;;;5020820;28;20659;-78
2021/07/15 06:30:14;;;;;;;1.45;1.35;;;14.80;99.90;;;;;;5026253;28;20231;-77
2021/07/15 06:32:43;;;;;;;1.40;1.30;;;14.80;99.90;;;;;;5021947;28;20273;-77
2021/07/15 06:35:10;;;;;;;1.40;1.30;;;14.90;99.90;;;;;;5018104;28;20223;-78
2021/07/15 06:37:41;;;;;;;1.58;1.48;;;14.80;99.90;;;;;;5022153;28;20228;-77
2021/07/15 06:40:10;;;;;;;1.30;1.20;;;14.80;99.90;;;;;;5019431;28;20236;-76
2021/07/15 06:42:38;;;;;;;1.38;1.27;;;14.90;99.90;;;;;;5025547;28;20751;-77
2021/07/15 06:45:07;;;;;;;1.73;1.63;;;15.00;99.90;;;;;;5023658;28;20239;-77
2021/07/15 06:47:34;;;;;;;1.40;1.40;;;15.10;99.90;;;;;;5025203;28;20231;-78
2021/07/15 06:50:03;;;;;;;1.40;1.30;;;15.10;99.90;;;;;;5021745;28;20257;-77
2021/07/15 06:52:31;;;;;;;1.55;1.45;;;15.10;99.90;;;;;;5020343;28;20629;-77
2021/07/15 06:55:00;;;;;;;1.52;1.42;;;15.10;99.90;;;;;;5020416;28;20228;-77
2021/07/15 06:57:27;;;;;;;1.30;1.20;;;15.10;99.90;;;;;;5017011;28;20672;-77
2021/07/15 06:59:54;;;;;;;1.73;1.63;;;15.10;99.90;;;;;;5027608;28;20226;-76
2021/07/15 07:02:21;;;;;;;1.48;1.40;;;15.10;99.90;;;;;;5023837;28;20293;-78
2021/07/15 07:04:48;;;;;;;1.40;1.30;;;15.10;99.90;;;;;;5022753;28;20219;-78
2021/07/15 07:07:17;;;;;;;1.55;1.45;;;15.10;99.90;;;;;;5023007;28;20718;-77
2021/07/15 07:09:44;;;;;;;1.88;1.58;;;15.30;99.90;;;;;;5013921;28;20605;-77
2021/07/15 07:12:11;;;;;;;1.40;1.40;;;15.50;99.90;;;;;;5027347;28;20268;-79
2021/07/15 07:14:38;;;;;;;1.48;1.45;;;15.50;99.90;;;;;;5020174;28;20219;-77
2021/07/15 07:17:05;;;;;;;1.70;1.60;;;15.50;99.90;;;;;;5016297;28;20302;-76
2021/07/15 07:19:33;;;;;;;1.50;1.40;;;15.60;99.90;;;;;;5012971;28;20231;-76
2021/07/15 07:22:00;;;;;;;1.30;1.20;;;15.70;99.90;;;;;;5015116;28;20297;-77
2021/07/15 07:24:28;;;;;;;2.78;1.65;;;15.80;99.90;;;;;;5016369;28;20326;-78
2021/07/15 07:26:55;;;;;;;2.35;1.48;;;15.90;99.90;;;;;;5015148;28;20220;-76
2021/07/15 07:29:22;;;;;;;1.80;1.70;;;15.90;99.90;;;;;;5006678;28;20306;-78
2021/07/15 07:31:50;;;;;;;1.50;1.40;;;16.10;99.90;;;;;;5006783;28;20242;-79
2021/07/15 07:34:17;;;;;;;2.22;1.60;;;16.30;99.90;;;;;;5017136;28;20227;-77
2021/07/15 07:36:44;;;;;;;1.73;1.63;;;16.40;99.90;;;;;;5008256;28;20219;-77
2021/07/15 07:39:11;;;;;;;1.65;1.55;;;16.30;99.90;;;;;;5015798;28;20706;-76
2021/07/15 07:41:39;;;;;;;1.35;1.30;;;16.30;99.90;;;;;;5013276;28;20276;-77
2021/07/15 07:44:07;;;;;;;1.75;1.63;;;16.30;99.90;;;;;;5014563;28;21008;-77
2021/07/15 07:46:34;;;;;;;1.60;1.50;;;16.40;99.90;;;;;;5014765;28;20732;-77
2021/07/15 07:49:01;;;;;;;4.45;1.67;;;16.50;99.90;;;;;;5007087;28;20224;-77
2021/07/15 07:51:30;;;;;;;2.75;1.70;;;16.60;99.90;;;;;;5012812;28;21368;-78
2021/07/15 07:53:57;;;;;;;1.83;1.58;;;16.70;99.90;;;;;;5016539;28;20228;-76
2021/07/15 07:56:25;;;;;;;1.75;1.65;;;17.00;99.90;;;;;;5007660;28;20227;-76
2021/07/15 07:58:55;;;;;;;5.00;1.90;;;17.20;99.90;;;;;;5013065;28;20787;-77
2021/07/15 08:01:22;;;;;;;1.60;1.50;;;17.60;99.90;;;;;;5007995;28;20230;-79
2021/07/15 08:03:49;;;;;;;2.28;1.83;;;18.00;99.90;;;;;;5012246;28;20320;-78
2021/07/15 08:06:16;;;;;;;2.15;1.58;;;18.50;99.90;;;;;;5014275;28;20231;-78
2021/07/15 08:08:43;;;;;;;1.48;1.30;;;18.70;99.90;;;;;;5017604;28;20239;-79
2021/07/15 08:11:11;;;;;;;2.55;1.65;;;18.70;99.90;;;;;;5015191;28;20238;-78
2021/07/15 08:13:43;;;;;;;1.50;1.40;;;18.70;99.90;;;;;;5009106;28;20228;-78
2021/07/15 08:16:12;;;;;;;1.40;1.30;;;18.90;99.90;;;;;;5005643;28;20243;-78
2021/07/15 08:18:39;;;;;;;1.60;1.23;;;18.90;99.90;;;;;;5011611;28;20231;-77
2021/07/15 08:21:06;;;;;;;1.52;1.42;;;18.80;99.90;;;;;;5014566;28;20930;-78
2021/07/15 08:23:33;;;;;;;1.23;1.13;;;19.10;99.90;;;;;;5016132;28;20701;-77
2021/07/15 08:26:00;;;;;;;1.42;1.33;;;19.00;99.90;;;;;;5014759;28;20223;-77
2021/07/15 08:28:27;;;;;;;3.05;1.40;;;19.00;99.90;;;;;;5011502;28;20235;-77
2021/07/15 08:30:54;;;;;;;1.48;1.30;;;19.00;99.90;;;;;;5010655;28;20231;-78
2021/07/15 08:33:22;;;;;;;1.40;1.30;;;18.80;99.90;;;;;;5011832;28;20833;-77
2021/07/15 08:35:49;;;;;;;1.60;1.50;;;18.60;99.90;;;;;;5005769;28;20746;-77
2021/07/15 08:38:16;;;;;;;3.42;1.60;;;18.50;99.90;;;;;;5012291;28;20227;-78
2021/07/15 08:40:45;;;;;;;2.20;1.30;;;18.80;99.90;;;;;;5014028;28;20725;-76
2021/07/15 08:43:12;;;;;;;1.38;1.23;;;19.10;99.90;;;;;;5009280;28;20223;-76
2021/07/15 08:45:40;;;;;;;2.67;1.45;;;19.10;99.90;;;;;;5016506;28;20227;-77
2021/07/15 08:48:10;;;;;;;1.00;1.00;;;19.00;99.90;;;;;;5009624;28;20239;-78
2021/07/15 08:50:39;;;;;;;1.50;1.40;;;19.00;99.90;;;;;;5014607;28;20607;-77
2021/07/15 08:53:06;;;;;;;1.55;1.45;;;19.20;99.90;;;;;;5010599;28;20232;-76
2021/07/15 08:58:20;;;;;;;1.30;1.20;;;19.30;99.90;;;;;;5012844;28;20230;-76
2021/07/15 09:00:49;;;;;;;1.30;1.20;;;19.40;99.90;;;;;;5015729;28;20788;-77
2021/07/15 09:03:16;;;;;;;1.45;1.30;;;19.80;99.90;;;;;;5016202;28;20273;-77
2021/07/15 09:05:45;;;;;;;1.40;1.30;;;19.80;99.90;;;;;;5017574;28;20230;-76
2021/07/15 09:08:14;;;;;;;1.40;1.30;;;20.00;99.90;;;;;;4986866;28;20231;-77
2021/07/15 09:10:42;;;;;;;2.88;1.77;;;20.00;99.90;;;;;;5011594;28;20229;-77
2021/07/15 09:13:10;;;;;;;1.13;1.13;;;20.10;99.90;;;;;;5017043;28;20234;-79
2021/07/15 09:15:39;;;;;;;1.20;1.17;;;20.30;99.90;;;;;;5016957;28;20321;-77
2021/07/15 09:18:12;;;;;;;1.20;1.17;;;20.40;99.90;;;;;;5014501;28;20222;-79
2021/07/15 09:20:40;;;;;;;1.33;1.23;;;20.50;99.90;;;;;;5016733;28;20388;-78
2021/07/15 09:23:10;;;;;;;2.55;1.33;;;20.40;99.90;;;;;;5012740;28;20231;-77
2021/07/15 09:25:58;;;;;;;1.05;1.05;;;20.60;99.90;;;;;;5016427;28;20234;-77
2021/07/15 09:28:31;;;;;;;1.30;1.20;;;20.80;99.90;;;;;;5017285;28;20223;-80
2021/07/15 09:31:14;;;;;;;2.15;1.17;;;21.10;99.90;;;;;;5011696;28;20746;-78
2021/07/15 09:33:42;;;;;;;1.05;0.82;;;21.10;99.90;;;;;;5013582;28;21035;-78
2021/07/15 09:36:19;;;;;;;1.15;1.15;;;20.80;99.90;;;;;;5015004;28;20226;-79
2021/07/15 09:38:48;;;;;;;1.13;1.02;;;20.80;99.90;;;;;;5017502;28;20219;-79
2021/07/15 09:41:19;;;;;;;2.33;1.10;;;21.10;99.90;;;;;;5013981;28;20289;-77
2021/07/15 09:43:47;;;;;;;1.08;1.08;;;21.30;99.90;;;;;;5008785;28;20219;-78
2021/07/15 09:46:24;;;;;;;1.90;1.10;;;21.20;99.90;;;;;;5013795;28;20232;-77
2021/07/15 09:49:04;;;;;;;1.35;1.25;;;20.90;99.90;;;;;;5021339;28;20250;-76
2021/07/15 09:51:41;;;;;;;1.00;1.00;;;20.80;99.90;;;;;;5012654;28;20313;-79
2021/07/15 09:54:10;;;;;;;1.38;1.27;;;21.00;99.90;;;;;;5012448;28;20223;-79
2021/07/15 09:56:46;;;;;;;1.20;1.10;;;21.20;99.90;;;;;;5015960;28;20223;-78
2021/07/15 09:59:13;;;;;;;1.52;1.10;;;21.70;99.90;;;;;;5016779;28;20229;-77
2021/07/15 10:01:50;;;;;;;1.67;1.00;;;22.00;99.90;;;;;;5017532;28;20301;-77
2021/07/15 10:04:22;;;;;;;1.13;1.00;;;22.30;99.90;;;;;;5011853;28;20223;-76
2021/07/15 10:06:51;;;;;;;1.10;0.90;;;22.60;99.90;;;;;;5014259;28;20713;-78
2021/07/15 10:09:24;;;;;;;0.90;0.90;;;22.70;99.90;;;;;;5014974;28;20785;-76
2021/07/15 10:11:56;;;;;;;1.00;0.93;;;22.70;99.90;;;;;;5021395;28;20305;-78
2021/07/15 10:14:32;;;;;;;0.93;0.93;;;22.70;99.90;;;;;;5014964;28;20220;-78
2021/07/15 10:17:00;;;;;;;1.00;0.90;;;22.80;99.90;;;;;;5016448;28;20219;-80
2021/07/15 10:19:27;;;;;;;1.20;1.10;;;22.90;99.90;;;;;;5018963;28;20570;-78
2021/07/15 10:21:58;;;;;;;0.90;0.90;;;23.10;99.90;;;;;;5016247;28;20656;-79
2021/07/15 10:24:27;;;;;;;0.70;0.70;;;23.30;99.90;;;;;;5016197;28;20261;-77
2021/07/15 10:26:55;;;;;;;1.27;0.75;;;23.20;99.90;;;;;;5016580;28;20226;-78
2021/07/15 10:29:24;;;;;;;1.45;0.90;;;23.20;99.90;;;;;;5012623;28;20621;-78
2021/07/15 10:31:53;;;;;;;1.20;0.80;;;23.10;99.90;;;;;;5017232;28;20722;-77
2021/07/15 10:34:21;;;;;;;1.17;0.82;;;23.20;99.90;;;;;;5017760;28;20277;-79
2021/07/15 10:36:51;;;;;;;0.77;0.77;;;23.40;99.90;;;;;;5023368;28;20215;-78
2021/07/15 10:39:18;;;;;;;1.10;1.10;;;23.40;99.90;;;;;;5024246;28;20251;-79
2021/07/15 10:41:50;;;;;;;0.90;0.90;;;23.20;99.90;;;;;;5018683;28;20239;-78
2021/07/15 10:44:18;;;;;;;2.13;0.90;;;23.00;99.90;;;;;;5017508;28;20239;-78
2021/07/15 10:46:46;;;;;;;1.10;1.00;;;22.90;99.90;;;;;;5018362;28;20239;-77
2021/07/15 10:49:13;;;;;;;0.93;0.90;;;23.00;99.90;;;;;;5018699;28;20215;-79
2021/07/15 10:51:44;;;;;;;0.90;0.90;;;23.10;99.90;;;;;;5012124;28;20223;-79
2021/07/15 10:54:11;;;;;;;0.80;0.80;;;23.40;99.90;;;;;;5016095;28;20223;-77
2021/07/15 10:56:39;;;;;;;0.90;0.80;;;23.20;99.90;;;;;;5014966;28;20273;-79
2021/07/15 10:59:23;;;;;;;1.00;1.00;;;23.10;99.90;;;;;;5019643;28;20227;-78
2021/07/15 11:01:50;;;;;;;1.13;1.02;;;23.20;99.90;;;;;;5020520;28;20217;-77
2021/07/15 11:04:22;;;;;;;1.30;0.98;;;23.50;99.90;;;;;;5020490;28;20219;-78
2021/07/15 11:06:51;;;;;;;1.88;0.80;;;23.40;99.90;;;;;;5019231;28;20298;-78
2021/07/15 11:09:29;;;;;;;1.20;1.10;;;23.10;99.90;;;;;;5020644;28;20350;-77
2021/07/15 11:11:58;;;;;;;0.90;0.90;;;22.90;99.90;;;;;;5019617;28;20231;-78
2021/07/15 11:14:39;;;;;;;0.80;0.80;;;22.60;99.90;;;;;;5018638;28;20261;-77
2021/07/15 11:17:31;;;;;;;1.17;1.08;;;22.50;99.90;;;;;;5021569;28;20515;-77
2021/07/15 11:20:01;;;;;;;1.42;0.98;;;22.30;99.90;;;;;;5003828;28;20231;-77
2021/07/15 11:22:42;;;;;;;1.38;0.88;;;22.30;99.90;;;;;;5020263;28;20228;-78
2021/07/15 11:25:10;;;;;;;1.20;1.05;;;22.30;99.90;;;;;;5017123;28;20211;-77
2021/07/15 11:27:43;;;;;;;1.20;1.10;;;22.20;99.90;;;;;;5018010;28;20223;-78
2021/07/15 11:30:28;;;;;;;1.00;1.00;;;22.10;99.90;;;;;;5018864;28;20235;-77
2021/07/15 11:32:56;;;;;;;2.97;1.30;;;22.10;99.90;;;;;;5008445;28;20231;-77
2021/07/15 11:35:26;;;;;;;1.15;1.05;;;22.10;99.90;;;;;;5016896;28;20289;-78
2021/07/15 11:38:14;;;;;;;1.13;1.00;;;22.10;99.90;;;;;;5021334;28;20729;-79
2021/07/15 11:40:46;;;;;;;2.78;1.08;;;22.10;99.90;;;;;;5008278;28;20231;-79
2021/07/15 11:43:27;;;;;;;2.10;1.00;;;22.20;99.90;;;;;;5015703;28;20689;-78
2021/07/15 11:46:17;;;;;;;2.28;1.02;;;22.30;99.90;;;;;;5015590;28;20707;-78
2021/07/15 11:48:50;;;;;;;0.70;0.70;;;22.40;99.90;;;;;;5018410;28;20293;-77
2021/07/15 11:51:32;;;;;;;3.42;1.10;;;22.30;99.90;;;;;;5016555;28;20318;-77
2021/07/15 11:54:22;;;;;;;1.00;0.95;;;22.30;99.90;;;;;;5015671;28;20215;-77
2021/07/15 11:56:52;;;;;;;0.82;0.82;;;22.40;99.90;;;;;;5014135;28;20230;-79
2021/07/15 11:59:36;;;;;;;0.90;0.90;;;22.40;99.90;;;;;;5017646;28;20227;-77
2021/07/15 12:02:08;;;;;;;1.10;1.00;;;22.50;99.90;;;;;;5013501;28;20238;-77
2021/07/15 12:05:07;;;;;;;0.90;0.90;;;22.50;99.90;;;;;;5017509;28;20269;-77
2021/07/15 12:07:34;;;;;;;0.93;0.93;;;22.70;99.90;;;;;;4989143;28;20417;-77
2021/07/15 12:10:04;;;;;;;1.60;0.95;;;22.80;99.90;;;;;;5017101;28;20282;-78
2021/07/15 12:12:32;;;;;;;0.80;0.80;;;22.70;99.90;;;;;;5013648;28;20701;-78
2021/07/15 12:14:59;;;;;;;1.00;1.00;;;22.60;99.90;;;;;;5017467;28;20743;-77
2021/07/15 12:17:31;;;;;;;0.90;0.90;;;22.50;99.90;;;;;;5015530;28;20462;-77
2021/07/15 12:20:00;;;;;;;1.60;1.15;;;22.50;99.90;;;;;;5012974;28;20603;-78
2021/07/15 12:22:28;;;;;;;1.15;1.05;;;22.60;99.90;;;;;;5016878;28;20219;-77
2021/07/15 12:25:14;;;;;;;1.15;1.00;;;22.70;99.90;;;;;;5011552;28;20231;-77
2021/07/15 12:27:43;;;;;;;1.08;1.00;;;23.00;99.90;;;;;;5015330;28;20235;-78
2021/07/15 12:30:11;;;;;;;0.82;0.82;;;23.30;99.90;;;;;;5014643;28;20272;-77
2021/07/15 12:32:52;;;;;;;1.40;1.30;;;23.50;99.90;;;;;;5003757;28;20801;-78
2021/07/15 12:35:19;;;;;;;1.20;1.10;;;23.60;99.90;;;;;;5018198;28;20230;-77
2021/07/15 12:37:46;;;;;;;1.15;1.00;;;24.00;99.90;;;;;;5014975;28;20231;-78
2021/07/15 12:40:14;;;;;;;1.20;1.10;;;24.40;99.90;;;;;;5013914;28;20220;-77
2021/07/15 12:42:41;;;;;;;1.55;1.15;;;24.30;99.90;;;;;;5013784;28;20784;-77
2021/07/15 12:45:18;;;;;;;1.77;1.20;;;24.10;99.90;;;;;;5014343;28;20633;-78
2021/07/15 12:48:00;;;;;;;1.02;1.02;;;24.20;99.90;;;;;;5017928;28;20220;-77
2021/07/15 12:50:28;;;;;;;0.98;0.98;;;24.10;99.90;;;;;;5008015;28;20226;-78
2021/07/15 12:53:09;;;;;;;1.13;0.80;;;24.10;99.90;;;;;;5018466;28;20227;-78
2021/07/15 12:55:36;;;;;;;0.95;0.95;;;24.20;99.90;;;;;;5015363;28;20282;-77
2021/07/15 12:58:03;;;;;;;1.25;1.10;;;24.20;99.90;;;;;;5009619;28;20707;-79
2021/07/15 13:00:33;;;;;;;1.20;1.10;;;24.40;99.90;;;;;;5013530;28;20547;-76
2021/07/15 13:03:02;;;;;;;1.25;1.15;;;24.80;99.90;;;;;;5018551;28;20223;-78
2021/07/15 13:05:29;;;;;;;1.13;1.02;;;25.00;99.90;;;;;;5020042;28;20223;-79